OOCL Nagoya — VRFX8 — position and weather

sailwx.info

Track history (hours):
 
Tides and Currents Weather Stations Pressure Air Temp Water Temp Dewpoint Dewpoint Depression Visibility Wind Speed Wind Dir Waves Ship Positions

OOCL Nagoya

Last reported at 2016-Dec-05 21:28 UTC. Time now 2016-Dec-07 16:31 UTC.
Position N 35°05' E 139°39'.

Length 260 m; draft 9.4 m.

Type: Cargo ship. MMSI: 477627900.

Date/timePositionNaut miles runAvg speedWind from/ knotsBaromVisibWave heightAir tempDewpointWater temp
2016-Dec-05 21:28N 35°05' E 139°39'1313.8
2016-Dec-05 20:33N 35°16' E 139°46'1212.3
2016-Dec-05 19:33N 35°28' E 139°49'8 7.8
2016-Dec-05 18:31N 35°36' E 139°47'0 0.1
2016-Dec-05 17:34N 35°36' E 139°47'0 0.0
2016-Dec-05 16:31N 35°36' E 139°47'0 0.0
2016-Dec-05 15:34N 35°36' E 139°47'0 0.0
2016-Dec-05 14:31N 35°36' E 139°47'0 0.0
2016-Dec-05 13:34N 35°36' E 139°47'0 0.0
2016-Dec-05 12:28N 35°36' E 139°47'0 0.0
2016-Dec-05 11:31N 35°36' E 139°47'0 0.0
2016-Dec-05 10:34N 35°36' E 139°47'0 0.0
2016-Dec-05 08:28N 35°36' E 139°47'0 0.0
2016-Dec-05 07:31N 35°36' E 139°47'0 0.0
2016-Dec-05 06:28N 35°36' E 139°47'0 0.1
2016-Dec-05 05:34N 35°36' E 139°47'0 0.0
2016-Dec-05 04:31N 35°36' E 139°47'0 0.1
2016-Dec-05 03:31N 35°36' E 139°47'6 6.0
2016-Dec-05 02:34N 35°32' E 139°52'1413.7
2016-Dec-05 01:33N 35°20' E 139°44'1211.1
2016-Dec-05 00:30N 35°08' E 139°46'9 9.6
2016-Dec-04 23:33N 35°01' E 139°39'46519.7
2016-Dec-04 00:00N 31°12' E 131°36'80020.1 160 / 981011.0 5.4 21.016.0
2016-Dec-02 08:14N 22°45' E 120°01'1420.5
2016-Dec-02 07:34N 22°36' E 120°11'7 7.4
2016-Dec-02 06:33N 22°34' E 120°19'1 0.5
2016-Dec-02 05:29N 22°34' E 120°19'0 0.0
2016-Dec-02 03:29N 22°34' E 120°19'0 0.0
2016-Dec-02 02:29N 22°34' E 120°19'1 1.3
2016-Dec-02 01:33N 22°33' E 120°18'2 1.9
2016-Dec-02 00:33N 22°33' E 120°16'7 7.2
2016-Dec-01 23:33N 22°31' E 120°09'1211.9
2016-Dec-01 22:33N 22°30' E 119°56'1211.7
2016-Dec-01 21:33N 22°29' E 119°43'31216.1
2016-Dec-01 02:07N 22°18' E 114°06'2 0.1
2016-Nov-30 02:33N 22°20' E 114°05'1110.7
2016-Nov-30 01:33N 22°23' E 113°54'4 4.2
2016-Nov-30 00:33N 22°27' E 113°54'0 0.0
2016-Nov-29 23:33N 22°27' E 113°54'0 0.0
2016-Nov-29 22:27N 22°27' E 113°54'0 0.0
2016-Nov-29 21:27N 22°27' E 113°54'0 0.0
2016-Nov-29 20:27N 22°27' E 113°54'0 0.0
2016-Nov-29 19:33N 22°27' E 113°54'0 0.0
2016-Nov-29 18:33N 22°27' E 113°54'0 0.0
2016-Nov-29 17:33N 22°27' E 113°54'0 0.0
2016-Nov-29 16:15N 22°27' E 113°54'0 0.0
2016-Nov-29 15:33N 22°27' E 113°54'0 0.0
2016-Nov-29 14:24N 22°27' E 113°54'0 0.0
2016-Nov-29 13:21N 22°27' E 113°54'0 0.0
2016-Nov-29 12:33N 22°27' E 113°54'14 6.9
2016-Nov-29 10:33N 22°19' E 114°05'  
Track history (hours):
 
Tides and Currents Weather Stations Pressure Air Temp Water Temp Dewpoint Dewpoint Depression Visibility Wind Speed Wind Dir Waves Ship Positions

OOCL Nagoya

Last reported at 2016-Dec-05 21:28 UTC. Time now 2016-Dec-07 16:31 UTC.
Position N 35°05' E 139°39'.

Length 260 m; draft 9.4 m.

Type: Cargo ship. MMSI: 477627900.

Date/timePositionNaut miles runAvg speedWind from/ knotsBaromVisibWave heightAir tempDewpointWater temp
2016-Dec-05 21:28N 35°05' E 139°39'1313.8
2016-Dec-05 20:33N 35°16' E 139°46'1212.3
2016-Dec-05 19:33N 35°28' E 139°49'8 7.8
2016-Dec-05 18:31N 35°36' E 139°47'0 0.1
2016-Dec-05 17:34N 35°36' E 139°47'0 0.0
2016-Dec-05 16:31N 35°36' E 139°47'0 0.0
2016-Dec-05 15:34N 35°36' E 139°47'0 0.0
2016-Dec-05 14:31N 35°36' E 139°47'0 0.0
2016-Dec-05 13:34N 35°36' E 139°47'0 0.0
2016-Dec-05 12:28N 35°36' E 139°47'0 0.0
2016-Dec-05 11:31N 35°36' E 139°47'0 0.0
2016-Dec-05 10:34N 35°36' E 139°47'0 0.0
2016-Dec-05 08:28N 35°36' E 139°47'0 0.0
2016-Dec-05 07:31N 35°36' E 139°47'0 0.0
2016-Dec-05 06:28N 35°36' E 139°47'0 0.1
2016-Dec-05 05:34N 35°36' E 139°47'0 0.0
2016-Dec-05 04:31N 35°36' E 139°47'0 0.1
2016-Dec-05 03:31N 35°36' E 139°47'6 6.0
2016-Dec-05 02:34N 35°32' E 139°52'1413.7
2016-Dec-05 01:33N 35°20' E 139°44'1211.1
2016-Dec-05 00:30N 35°08' E 139°46'9 9.6
2016-Dec-04 23:33N 35°01' E 139°39'46519.7
2016-Dec-04 00:00N 31°12' E 131°36'80020.1 160 / 981011.0 5.4 21.016.0
2016-Dec-02 08:14N 22°45' E 120°01'1420.5
2016-Dec-02 07:34N 22°36' E 120°11'7 7.4
2016-Dec-02 06:33N 22°34' E 120°19'1 0.5
2016-Dec-02 05:29N 22°34' E 120°19'0 0.0
2016-Dec-02 03:29N 22°34' E 120°19'0 0.0
2016-Dec-02 02:29N 22°34' E 120°19'1 1.3
2016-Dec-02 01:33N 22°33' E 120°18'2 1.9
2016-Dec-02 00:33N 22°33' E 120°16'7 7.2
2016-Dec-01 23:33N 22°31' E 120°09'1211.9
2016-Dec-01 22:33N 22°30' E 119°56'1211.7
2016-Dec-01 21:33N 22°29' E 119°43'31216.1
2016-Dec-01 02:07N 22°18' E 114°06'2 0.1
2016-Nov-30 02:33N 22°20' E 114°05'1110.7
2016-Nov-30 01:33N 22°23' E 113°54'4 4.2
2016-Nov-30 00:33N 22°27' E 113°54'0 0.0
2016-Nov-29 23:33N 22°27' E 113°54'0 0.0
2016-Nov-29 22:27N 22°27' E 113°54'0 0.0
2016-Nov-29 21:27N 22°27' E 113°54'0 0.0
2016-Nov-29 20:27N 22°27' E 113°54'0 0.0
2016-Nov-29 19:33N 22°27' E 113°54'0 0.0
2016-Nov-29 18:33N 22°27' E 113°54'0 0.0
2016-Nov-29 17:33N 22°27' E 113°54'0 0.0
2016-Nov-29 16:15N 22°27' E 113°54'0 0.0
2016-Nov-29 15:33N 22°27' E 113°54'0 0.0
2016-Nov-29 14:24N 22°27' E 113°54'0 0.0
2016-Nov-29 13:21N 22°27' E 113°54'0 0.0
2016-Nov-29 12:33N 22°27' E 113°54'14 6.9
2016-Nov-29 10:33N 22°19' E 114°05'  

Dump ship's entire track history